Terminal Aerodrome Forecast
Issued by NWS

Home | Current Version | Previous Version | Text Only | Print | Product List | Glossary On
Versions: 1 2 3 4 5 6 7 8 9 10 11 12 13 14 15 16 17 18 19 20 21
000
FTUS43 KGRB 250540
TAFATW
TAF
KATW 250540Z 2506/2606 35010G20KT 3SM -FZDZSN BR OVC008
     FM250700 35014G24KT 2SM -SN BR OVC010
     FM251100 32017G25KT P6SM -SN SCT010 OVC020
     FM251500 30017G25KT P6SM SCT012 OVC030
     FM260000 26009KT P6SM FEW050=

USA.gov is the U.S. government's official web portal to all federal, state and local government web resources and services.